CW0436 Weather Reports


Display with metric or nautical units.
time (UTC)temp
F
wind
direction
speed
MPH
gust
MPH
rain 1hr
in
rain 24hr
in
rain mn
in
humidity
%
barometer
mb
20200229133612 52 170 12.0 12.0 0.00 0.18 0.17 50 995.2
20200229125612 55 170 12.0 12.0 0.00 0.20 0.17 47 996.0
20200229124612 56 170 12.0 12.0 0.00 0.20 0.17 46 996.0
20200229123612 56 170 12.0 12.0 0.00 0.20 0.17 48 995.9
20200229120616 55 170 12.0 12.0 0.00 0.20 0.17 48 997.1
20200229115617 56 170 12.0 12.0 0.00 0.28 0.17 48 997.0
20200229114618 55 170 12.0 12.0 0.00 0.28 0.17 51 997.1
20200229113616 54 170 12.0 12.0 0.00 0.28 0.17 52 998.2
20200229111617 49 165 15.0 15.0 0.00 0.28 0.17 61 998.6
20200229110617 48 165 15.0 15.0 0.00 0.28 0.17 64 998.8
20200229105617 47 165 15.0 15.0 0.00 0.33 0.17 64 998.8
20200229104617 47 165 15.0 15.0 0.00 0.33 0.17 65 999.9
20200229102616 47 165 15.0 15.0 0.00 0.33 0.17 66 999.9
20200229101617 47 165 15.0 15.0 0.00 0.33 0.17 68 999.9
20200229100617 46 165 15.0 15.0 0.00 0.33 0.17 75 1000.0
20200229094618 44 165 15.0 15.0 0.00 0.34 0.17 78 1000.2
20200229093616 43 165 15.0 15.0 0.00 0.34 0.17 79 1000.3
20200229092616 42 165 15.0 15.0 0.00 0.34 0.17 81 1001.4
20200229085616 41 165 15.0 15.0 0.00 0.34 0.17 82 1001.5
20200229083616 41 165 15.0 15.0 0.00 0.34 0.17 85 1001.5
20200229082616 41 165 15.0 15.0 0.00 0.34 0.17 86 1002.6
20200229081616 40 165 15.0 15.0 0.00 0.34 0.17 87 1001.6
20200229080616 40 165 15.0 15.0 0.00 0.34 0.17 88 1002.6
20200229075616 40 165 15.0 15.0 0.00 0.34 0.17 89 1002.7
20200229074616 39 165 15.0 15.0 0.00 0.34 0.17 90 1002.7
20200229073616 39 165 15.0 15.0 0.00 0.34 0.17 90 1002.7
20200229071616 38 165 15.0 15.0 0.01 0.34 0.17 92 1002.8
20200229065616 38 160 10.0 10.0 0.03 0.34 0.17 91 1002.8
20200229062615 37 160 12.0 12.0 0.06 0.33 0.16 90 1003.9
20200229061616 37 165 10.0 10.0 0.06 0.33 0.16 90 1003.9
20200229060615 37 185 11.0 11.0 0.06 0.31 0.14 90 1004.0
20200229053615 37 170 15.0 15.0 0.07 0.28 0.11 89 1004.0
20200229050615 36 170 20.0 20.0 0.07 0.26 0.09 87 1005.1
20200229043614 36 160 12.0 12.0 0.04 0.21 0.04 83 1005.1
20200229042615 36 170 17.0 17.0 0.03 0.20 0.03 82 1005.1
20200229041614 36 185 12.0 12.0 0.03 0.20 0.03 81 1005.1
20200229035614 36 185 16.0 16.0 0.01 0.18 0.01 82 1006.2
20200229034614 35 185 16.0 16.0 0.01 0.18 0.01 84 1006.2
20200229033615 35 185 16.0 16.0 0.00 0.17 0.00 85 1006.2
20200229032615 35 185 13.0 13.0 0.00 0.17 0.00 85 1006.3
20200229031614 34 165 13.0 13.0 0.00 0.17 0.00 85 1006.3
20200229030614 34 235 10.0 10.0 0.00 0.17 0.00 85 1006.3
20200229025614 34 175 9.0 9.0 0.00 0.17 0.00 85 1006.3
20200229023614 33 175 9.0 9.0 0.00 0.17 0.00 86 1006.4
20200229021614 33 175 9.0 9.0 0.00 0.17 0.00 84 1007.5
20200229020614 33 175 9.0 9.0 0.00 0.17 0.00 83 1007.5
20200229015614 32 175 9.0 9.0 0.00 0.17 0.00 81 1008.6
20200229013614 32 175 9.0 9.0 0.00 0.17 0.00 77 1008.6
20200229004614 35 175 9.0 9.0 0.00 0.17 0.00 58 1010.4
20200229003614 36 175 9.0 9.0 0.00 0.17 0.00 54 1010.4
20200229001615 36 175 9.0 9.0 0.00 0.17 0.00 53 1010.3
20200229000614 36 175 9.0 9.0 0.00 0.17 0.00 52 1010.3
20200228235614 36 175 9.0 9.0 0.00 0.17 0.00 52 1010.3
20200228232614 36 175 9.0 9.0 0.00 0.17 0.00 53 1011.4
20200228230624 36 175 9.0 9.0 0.00 0.17 0.00 54 1010.3
20200228220618 35 175 9.0 9.0 0.00 0.17 0.17 61 1012.6
20200228215618 34 175 9.0 9.0 0.00 0.17 0.17 62 1012.6
20200228214618 34 175 9.0 9.0 0.00 0.17 0.17 62 1012.6
20200228213618 34 175 9.0 9.0 0.00 0.17 0.17 63 1012.6
20200228211618 34 175 9.0 9.0 0.00 0.17 0.17 64 1013.7
20200228210618 34 175 9.0 9.0 0.00 0.17 0.17 65 1013.7
20200228205617 34 175 9.0 9.0 0.00 0.17 0.17 68 1013.7
20200228203618 33 175 9.0 9.0 0.00 0.17 0.17 69 1013.8
20200228202618 33 175 9.0 9.0 0.00 0.17 0.17 69 1013.8
20200228201617 33 175 9.0 9.0 0.00 0.17 0.17 71 1014.8
20200228193617 32 175 9.0 9.0 0.00 0.17 0.17 72 1014.9
20200228192617 31 175 9.0 9.0 0.00 0.17 0.17 73 1016.0
20200228191617 31 175 9.0 9.0 0.00 0.17 0.17 72 1016.1
20200228185617 31 175 9.0 9.0 0.00 0.17 0.17 71 1016.1
20200228184618 31 175 9.0 9.0 0.00 0.17 0.17 71 1016.1
20200228182617 31 175 9.0 9.0 0.00 0.17 0.17 71 1017.1
20200228181617 31 180 7.0 7.0 0.00 0.17 0.17 69 1017.1
20200228175617 32 210 9.0 9.0 0.00 0.17 0.17 69 1017.1
20200228174617 32 210 9.0 9.0 0.00 0.17 0.17 68 1017.0
20200228173617 32 210 9.0 9.0 0.00 0.17 0.17 68 1017.0
20200228172617 32 210 9.0 9.0 0.00 0.17 0.17 67 1017.0
20200228170617 33 210 9.0 9.0 0.00 0.17 0.17 65 1016.9
20200228164616 34 330 18.0 18.0 0.00 0.17 0.17 62 1016.8
20200228163616 35 330 18.0 18.0 0.00 0.17 0.17 63 1016.7
20200228160617 35 350 17.0 17.0 0.00 0.17 0.17 63 1016.7
20200228155616 36 345 14.0 14.0 0.00 0.17 0.17 61 1016.7
20200228154616 36 350 17.0 17.0 0.00 0.17 0.17 60 1016.6
20200228152616 37 350 18.0 18.0 0.01 0.17 0.17 59 1016.5
20200228151616 38 345 15.0 15.0 0.01 0.17 0.17 58 1016.4
20200228150616 39 325 21.0 21.0 0.01 0.17 0.17 57 1016.3
20200228145616 40 330 25.0 25.0 0.01 0.17 0.17 57 1016.3
20200228144616 39 320 21.0 21.0 0.01 0.17 0.17 60 1016.4
20200228143617 38 320 21.0 21.0 0.00 0.16 0.16 58 1017.5
20200228142616 38 330 26.0 26.0 0.00 0.16 0.16 59 1017.5
20200228140616 39 340 19.0 19.0 0.01 0.16 0.16 59 1016.4